createdAt,value
2023-08-15T00:02:42.648Z,22.1
2023-08-15T00:32:43.206Z,22.1
2023-08-15T01:02:43.873Z,22.1
2023-08-15T01:32:44.595Z,22.1
2023-08-15T02:02:45.166Z,22
2023-08-15T02:32:47.207Z,22.1
2023-08-15T03:02:47.735Z,22.1
2023-08-15T03:32:48.218Z,22.1
2023-08-15T04:02:48.757Z,22
2023-08-15T04:32:49.270Z,22.1
2023-08-15T05:02:49.785Z,22.1
2023-08-15T06:03:00.999Z,22.1
2023-08-15T06:33:01.562Z,22.1
2023-08-15T07:03:12.592Z,22.1
2023-08-15T07:33:13.115Z,22.1
2023-08-15T08:03:13.685Z,22.2
2023-08-15T08:33:14.206Z,22.3
2023-08-15T09:03:15.576Z,22.3
2023-08-15T09:33:16.086Z,22.3
2023-08-15T10:33:17.397Z,22.4
2023-08-15T11:03:17.892Z,22.5
2023-08-15T11:33:18.340Z,22.5
2023-08-15T12:03:18.830Z,22.7
2023-08-15T12:34:05.922Z,22.9
2023-08-15T13:04:08.571Z,22.8
2023-08-15T13:34:10.838Z,22.7
2023-08-15T14:04:11.474Z,22.6
2023-08-15T14:34:12.066Z,22.5
2023-08-15T15:04:22.518Z,22.5
2023-08-15T16:04:33.423Z,22.7
2023-08-15T16:34:33.865Z,22.7
2023-08-15T17:04:34.420Z,22.6
2023-08-15T17:34:34.910Z,22.6
2023-08-15T18:04:35.814Z,22.7
2023-08-15T18:34:36.248Z,22.5
2023-08-15T19:04:36.765Z,22.6
2023-08-15T19:34:37.152Z,22.5
2023-08-15T20:04:47.647Z,22.5
2023-08-15T20:34:48.122Z,22.5
2023-08-15T21:04:51.804Z,22.4
2023-08-15T21:34:53.263Z,22.4
2023-08-15T22:04:54.085Z,22.4
2023-08-15T22:34:54.465Z,22.4
2023-08-15T23:04:54.913Z,22.4
2023-08-15T23:34:56.740Z,22.4
